KDNN/DNN METAR and TAF weather

Enter ICAO airport designator
Station Type Date Time Source
KDNN METAR 2018/07/20 14:35 UTC NOAA

KDNN 201435Z AUTO 17005KT 10SM CLR 27/21 A3006 RMK AO2


Station Type Date Time Source
KDNN Decoded METAR 2018/07/20 14:35 UTC NOAA

Dalton, Dalton Municipal Airport, GA, United States (KDNN) 34-43-18N 084-52-09W
Jul 20, 2018 - 10:35 AM EDT / 2018.07.20 1435 UTC
Wind: from the S (170 degrees) at 6 MPH (5 KT):0
Visibility: 10 mile(s):0
Sky conditions: clear
Temperature: 80 F (27 C)
Dew Point: 69 F (21 C)
Relative Humidity: 69%
Pressure (altimeter): 30.06 in. Hg (1017 hPa)
ob: KDNN 201435Z AUTO 17005KT 10SM CLR 27/21 A3006 RMK AO2
cycle: 14

Station Type Date Time Source
KDNN TAF UTC NOAA

Error!


Example: see airport list